Station info - map view · info · telemetry · weather · raw · status · beacons · messages · bulletins · browse · moving · my account
Callsign, ship name or locator: Clear       
It is possible to search using wildcards (*?) after a prefix. Example: OH*
APRS station OZ1ARQ-9 - show graphs
Map loading...
Comment: TT.2_8watt
Mic-E message: En route
Last status: TinyTrakII v1.00
Location: 54°45.81' N 11°51.20' E - locator JO54WS23JF - show map - static map
0.9 miles Southwest bearing 245° from Nykøbing Falster, Guldborgsund Kommune, Zealand, Denmark [?]
7.3 miles South bearing 161° from Sundby, Guldborgsund Kommune, Zealand, Denmark
69.0 miles Southwest bearing 204° from Copenhagen, Københavns Kommune, Capital Region, Denmark
73.7 miles Southwest bearing 218° from Malmö (Malmoe), Malmö Kommun, Skåne, Sweden
Last position: 2017-02-24 10:10:34 EST (27s ago)
2017-02-24 16:10:34 CET local time at Nykøbing Falster, Denmark [?]
Altitude: 131 ft
Course: 260°
Speed: 23 MPH
Last path: OZ1ARQ-9>UT4U81 via WIDE1-1,WIDE2-2,qAR,OZ1ARQ-1 (good)
Positions stored: 79970
Packet rate: 23 seconds between packets on average during 117 seconds.
This station is transmitting packets at a high rate, which can cause congestion in the APRS network.
Other SSIDs: OZ1ARQ OZ1ARQ-1
Stations near current position of OZ1ARQ-9 - show more
callsign distance last heard - EST      callsign distance last heard - EST
IRLP-51220.7 miles 241°2017-02-24 10:00:02 OZ1ARQ-10.8 miles 233°2017-02-24 09:57:32
OZ1PF-92.8 miles 266°2017-02-04 07:48:03 DW34006.0 miles 223°2017-02-24 10:10:08
M223350710.4 miles 158°2017-02-23 07:20:02 WM223350710.7 miles 150°2017-02-23 07:21:41
OZ4DIA-211.6 miles 40°2017-02-24 09:46:49 M214341712.0 miles 222°2017-02-16 07:42:07
CW683512.8 miles 22°2017-02-24 10:04:54 219423000 DK13.4 miles 168°2017-02-14 05:06:35
OZ0RED B14.0 miles 274°2017-02-24 09:57:09 OZ0RED-B14.0 miles 274°2017-02-24 09:57:19
OZ5REQ14.7 miles 273°2017-02-24 09:56:02 OZ8REK15.3 miles 290°2017-02-24 09:38:55
OZ1LOL16.2 miles 257°2017-02-24 09:55:57 M224314816.6 miles 177°2017-01-30 07:45:46
OZ2HNS17.1 miles 6°2017-02-04 10:54:12 OZ1BV17.4 miles 7°2017-02-19 14:55:53
M223347317.6 miles 3°2017-02-03 08:07:26 OZ8SMA-218.0 miles 5°2017-02-24 10:00:42
Stations which heard OZ1ARQ-9 directly on radio –
callsign pkts first heard - EST last heard longest (tx => rx) longest at - EST
OZ4DIE-2 31 2017-02-03 04:49:38 2017-02-11 16:38:10 JO54XW > JO65FR 57.8 miles 19° 2017-02-03 04:49:38
OZ4DID-2 6 2017-02-11 05:07:49 2017-02-11 13:42:51 JO55OI > JO55HB 30.9 miles 230° 2017-02-11 05:07:49
OZ5DIB-1 35 2017-02-04 07:54:50 2017-02-11 16:34:32 JO55MI > JO55XU 51.0 miles 47° 2017-02-11 05:14:26
OZ4DIC-2 119 2017-02-03 06:23:42 2017-02-11 13:33:29 JO45UM > JO55FJ 28.7 miles 107° 2017-02-11 06:02:17
OZ4DIA-2 109 2017-02-03 04:17:51 2017-02-24 10:08:40 JO55LH > JO64AV 53.1 miles 123° 2017-02-04 07:50:19
OZ4DIF-2 2 2017-02-03 06:25:31 2017-02-11 13:40:56 JO55MI > JO55QJ 14.6 miles 72° 2017-02-03 06:25:31
OZ4DIS-2 49 2017-02-03 05:40:12 2017-02-11 14:01:35 JO55DJ > JO55NQ 37.8 miles 56° 2017-02-11 13:12:15
OZ6FRS-3 2 2017-02-11 04:45:14 2017-02-11 16:20:19 JO55TK > JO65BT 31.1 miles 32° 2017-02-11 04:45:14
OZ5DIL-2 85 2017-02-03 08:14:08 2017-02-11 11:56:50 JO45NG > JO45NA 15.6 miles 183° 2017-02-11 06:48:24
DO0SOC 3 2017-02-14 10:56:49 2017-02-14 11:04:24 JO54WS > JO54KI 50.4 miles 233° 2017-02-14 11:04:24
OZ6DIA-2 11 2017-02-03 04:26:45 2017-02-21 10:34:42 JO54WS > JO54QQ 20.1 miles 251° 2017-02-11 17:13:49
OZ2REC-2 3 2017-02-03 06:09:51 2017-02-03 06:26:33 JO55QJ > JO46VR 109.5 miles 327° 2017-02-03 06:11:30
OZ8SMA-2 45 2017-02-03 04:36:59 2017-02-21 10:36:01 JO55MI > JO55WA 41.0 miles 122° 2017-02-11 13:40:04
OZ9AAJ-3 12 2017-02-03 04:56:57 2017-02-11 16:47:01 JO55XF > JO65CC 11.5 miles 140° 2017-02-11 16:40:00
OZ1ARQ-1 281 2017-02-03 04:13:50 2017-02-24 10:10:20 JO55XA > JO54WS 19.3 miles 198° 2017-02-11 03:50:03
OV7B-1 163 2017-02-03 07:01:00 2017-02-11 13:04:42 JO45NG > JO45VL 28.2 miles 58° 2017-02-03 08:07:07
OZ5W-1 220 2017-02-03 04:49:37 2017-02-14 11:11:48 JO54VS > JO55UL 50.4 miles 353° 2017-02-14 10:56:58
OZ1AHV-1 51 2017-02-03 05:09:54 2017-02-11 16:37:15 JO55XF > JO55XL 17.1 miles 359° 2017-02-11 04:04:43
OZ5DSL-1 400 2017-02-03 04:14:47 2017-02-24 08:47:36 JO45VL > JO55QJ 60.9 miles 97° 2017-02-03 07:13:35
OZ6REC-1 9 2017-02-03 05:29:55 2017-02-11 16:19:25 JO55MI > JO55TP 32.7 miles 47° 2017-02-11 05:14:27
OZ7DIA-1 21 2017-02-03 06:10:32 2017-02-11 14:04:27 JO55DJ > JO55NM 34.7 miles 73° 2017-02-11 05:41:31
OZ9LLA-1 1 2017-02-03 06:26:25 2017-02-03 06:26:25 JO55MI > JO57FK 145.3 miles 352° 2017-02-03 06:26:25
OZ0LAV 90 2017-02-03 07:01:55 2017-02-11 12:39:57 JO45LC > JO45RM 32.3 miles 36° 2017-02-04 06:11:07
OZ5DIZ 21 2017-02-03 07:03:30 2017-02-04 07:18:54 JO45PJ > JO45UQ 26.7 miles 39° 2017-02-04 06:37:20
OZ6HR-2 1 2017-02-11 12:56:24 2017-02-11 12:56:24 JO45WL > JO45WW 31.0 miles 357° 2017-02-11 12:56:24

Only position packets which were originated by the station are shown here. The range statistics show some extra long hops, because some digipeaters do not correctly add themselves to the digipeater path. Please check the raw packets.
About this site
This page shows real-time information collected from the Automatic Position Reporting System Internet network (APRS-IS). APRS is used by amateur (ham) radio operators to transmit real-time position information, weather data, telemetry and messages over the radio. A vehicle equipped with a GPS receiver, a VHF transmitter or HF transceiver and a small computer device called a tracker transmits it's location, speed and course in a small data packet, which is then received by a nearby iGate receiving site which forwards the packet on the Internet. Systems connected to the Internet can send information on the APRS-IS without a radio transmitter, or collect and display information transmitted anywhere in the world.
FAQ · Blog · Discussion group · Linking to aprs.fi · AIS sites · Service status · Database statistics · Advertising on aprs.fi · Technical details · API · Change log · Planned changes · Credits and thanks · Terms Of Service · iPhone/iPad APRS